Terminal Aerodrome Forecast
Issued by NWS

Home | Current Version | Previous Version | Graphics & Text | Print | Product List | Glossary On
Versions: 1 2 3 4 5 6 7 8 9 10 11 12 13 14 15 16 17 18 19
000
FTUS42 KMHX 142332
TAFISO
TAF
KISO 142332Z 1500/1524 VRB04KT P6SM -SHRA VCTS SCT015 OVC070CB
     FM150130 VRB03KT P6SM SCT015 BKN130
     FM150700 00000KT 4SM BR BKN005
     FM150800 00000KT 2SM BR BKN004
     FM151300 00000KT 4SM BR BKN007
     FM151400 00000KT P6SM BKN015
     FM151800 22003KT P6SM VCTS BKN045CB
      AMD LTD TO CLD VIS AND WIND=

USA.gov is the U.S. government's official web portal to all federal, state and local government web resources and services.